sensor_id;sensor_type;location;lat;lon;timestamp;temperature;humidity
75666;DHT22;64263;49.492;11.056;2023-07-13T00:02:22;20.70;59.00
75666;DHT22;64263;49.492;11.056;2023-07-13T00:04:48;20.60;59.30
75666;DHT22;64263;49.492;11.056;2023-07-13T00:07:13;20.60;59.20
75666;DHT22;64263;49.492;11.056;2023-07-13T00:09:39;20.50;59.70
75666;DHT22;64263;49.492;11.056;2023-07-13T00:12:04;20.50;60.10
75666;DHT22;64263;49.492;11.056;2023-07-13T00:14:30;20.50;60.10
75666;DHT22;64263;49.492;11.056;2023-07-13T00:16:56;20.50;60.20
75666;DHT22;64263;49.492;11.056;2023-07-13T00:19:22;20.40;60.40
75666;DHT22;64263;49.492;11.056;2023-07-13T00:21:47;20.30;60.30
75666;DHT22;64263;49.492;11.056;2023-07-13T00:24:18;20.30;60.00
75666;DHT22;64263;49.492;11.056;2023-07-13T00:26:43;20.30;59.90
75666;DHT22;64263;49.492;11.056;2023-07-13T00:29:09;20.30;60.10
75666;DHT22;64263;49.492;11.056;2023-07-13T00:31:35;20.30;60.20
75666;DHT22;64263;49.492;11.056;2023-07-13T00:34:00;20.20;60.20
75666;DHT22;64263;49.492;11.056;2023-07-13T00:36:26;20.10;60.30
75666;DHT22;64263;49.492;11.056;2023-07-13T00:38:51;20.20;60.20
75666;DHT22;64263;49.492;11.056;2023-07-13T00:41:17;20.30;60.10
75666;DHT22;64263;49.492;11.056;2023-07-13T00:43:42;20.30;60.10
75666;DHT22;64263;49.492;11.056;2023-07-13T00:46:14;20.30;60.10
75666;DHT22;64263;49.492;11.056;2023-07-13T00:48:42;20.30;60.00
75666;DHT22;64263;49.492;11.056;2023-07-13T00:51:10;20.30;60.30
75666;DHT22;64263;49.492;11.056;2023-07-13T00:53:35;20.30;60.10
75666;DHT22;64263;49.492;11.056;2023-07-13T00:56:01;20.20;60.50
75666;DHT22;64263;49.492;11.056;2023-07-13T00:58:28;20.10;60.30
75666;DHT22;64263;49.492;11.056;2023-07-13T01:00:54;20.10;60.50
75666;DHT22;64263;49.492;11.056;2023-07-13T01:03:20;20.00;60.70
75666;DHT22;64263;49.492;11.056;2023-07-13T01:05:48;19.90;61.30
75666;DHT22;64263;49.492;11.056;2023-07-13T01:08:14;19.70;62.00
75666;DHT22;64263;49.492;11.056;2023-07-13T01:10:39;19.50;62.20
75666;DHT22;64263;49.492;11.056;2023-07-13T01:13:09;19.50;62.40
75666;DHT22;64263;49.492;11.056;2023-07-13T01:18:03;19.30;63.40
75666;DHT22;64263;49.492;11.056;2023-07-13T01:20:28;19.10;63.90
75666;DHT22;64263;49.492;11.056;2023-07-13T01:22:54;19.00;64.30
75666;DHT22;64263;49.492;11.056;2023-07-13T01:25:20;18.90;65.00
75666;DHT22;64263;49.492;11.056;2023-07-13T01:27:46;18.70;65.60
75666;DHT22;64263;49.492;11.056;2023-07-13T01:30:11;18.70;65.90
75666;DHT22;64263;49.492;11.056;2023-07-13T01:32:37;18.60;65.40
75666;DHT22;64263;49.492;11.056;2023-07-13T01:35:02;18.50;65.10
75666;DHT22;64263;49.492;11.056;2023-07-13T01:37:28;18.50;65.10
75666;DHT22;64263;49.492;11.056;2023-07-13T01:39:54;18.50;65.20
75666;DHT22;64263;49.492;11.056;2023-07-13T01:42:19;18.50;65.40
75666;DHT22;64263;49.492;11.056;2023-07-13T01:44:45;18.40;65.00
75666;DHT22;64263;49.492;11.056;2023-07-13T01:47:11;18.50;65.00
75666;DHT22;64263;49.492;11.056;2023-07-13T01:49:37;18.40;65.00
75666;DHT22;64263;49.492;11.056;2023-07-13T01:52:02;18.30;65.30
75666;DHT22;64263;49.492;11.056;2023-07-13T01:54:28;18.30;65.40
75666;DHT22;64263;49.492;11.056;2023-07-13T01:56:53;18.20;64.50
75666;DHT22;64263;49.492;11.056;2023-07-13T01:59:19;18.30;64.70
75666;DHT22;64263;49.492;11.056;2023-07-13T02:01:44;18.30;64.60
75666;DHT22;64263;49.492;11.056;2023-07-13T02:04:10;18.30;64.60
75666;DHT22;64263;49.492;11.056;2023-07-13T02:06:35;18.20;65.00
75666;DHT22;64263;49.492;11.056;2023-07-13T02:09:00;18.10;65.40
75666;DHT22;64263;49.492;11.056;2023-07-13T02:11:26;18.00;65.80
75666;DHT22;64263;49.492;11.056;2023-07-13T02:13:51;18.00;66.20
75666;DHT22;64263;49.492;11.056;2023-07-13T02:16:17;18.00;66.70
75666;DHT22;64263;49.492;11.056;2023-07-13T02:18:42;17.90;66.60
75666;DHT22;64263;49.492;11.056;2023-07-13T02:21:08;17.80;67.10
75666;DHT22;64263;49.492;11.056;2023-07-13T02:23:33;17.80;68.10
75666;DHT22;64263;49.492;11.056;2023-07-13T02:26:00;17.70;68.50
75666;DHT22;64263;49.492;11.056;2023-07-13T02:28:26;17.60;68.70
75666;DHT22;64263;49.492;11.056;2023-07-13T02:30:51;17.50;69.10
75666;DHT22;64263;49.492;11.056;2023-07-13T02:33:17;17.40;69.30
75666;DHT22;64263;49.492;11.056;2023-07-13T02:35:42;17.40;69.30
75666;DHT22;64263;49.492;11.056;2023-07-13T02:38:08;17.30;69.30
75666;DHT22;64263;49.492;11.056;2023-07-13T02:40:33;17.20;69.60
75666;DHT22;64263;49.492;11.056;2023-07-13T02:42:59;17.20;70.40
75666;DHT22;64263;49.492;11.056;2023-07-13T02:45:25;17.00;71.00
75666;DHT22;64263;49.492;11.056;2023-07-13T02:47:50;17.00;71.10
75666;DHT22;64263;49.492;11.056;2023-07-13T02:50:16;16.90;71.20
75666;DHT22;64263;49.492;11.056;2023-07-13T02:52:41;16.90;71.60
75666;DHT22;64263;49.492;11.056;2023-07-13T02:55:07;16.80;71.40
75666;DHT22;64263;49.492;11.056;2023-07-13T02:57:33;16.80;71.20
75666;DHT22;64263;49.492;11.056;2023-07-13T02:59:58;16.70;70.20
75666;DHT22;64263;49.492;11.056;2023-07-13T03:02:24;16.70;69.70
75666;DHT22;64263;49.492;11.056;2023-07-13T03:04:49;16.80;68.50
75666;DHT22;64263;49.492;11.056;2023-07-13T03:07:15;16.90;68.50
75666;DHT22;64263;49.492;11.056;2023-07-13T03:09:40;16.90;68.50
75666;DHT22;64263;49.492;11.056;2023-07-13T03:12:06;16.80;68.90
75666;DHT22;64263;49.492;11.056;2023-07-13T03:14:32;16.80;68.90
75666;DHT22;64263;49.492;11.056;2023-07-13T03:16:58;16.70;68.90
75666;DHT22;64263;49.492;11.056;2023-07-13T03:19:23;16.70;69.10
75666;DHT22;64263;49.492;11.056;2023-07-13T03:21:49;16.70;69.10
75666;DHT22;64263;49.492;11.056;2023-07-13T03:24:14;16.60;69.40
75666;DHT22;64263;49.492;11.056;2023-07-13T03:26:40;16.60;69.50
75666;DHT22;64263;49.492;11.056;2023-07-13T03:29:05;16.50;70.00
75666;DHT22;64263;49.492;11.056;2023-07-13T03:31:33;16.40;70.10
75666;DHT22;64263;49.492;11.056;2023-07-13T03:33:59;16.40;70.30
75666;DHT22;64263;49.492;11.056;2023-07-13T03:36:27;16.40;70.50
75666;DHT22;64263;49.492;11.056;2023-07-13T03:38:55;16.40;71.10
75666;DHT22;64263;49.492;11.056;2023-07-13T03:41:21;16.20;70.70
75666;DHT22;64263;49.492;11.056;2023-07-13T03:43:47;16.20;71.20
75666;DHT22;64263;49.492;11.056;2023-07-13T03:46:13;16.20;70.90
75666;DHT22;64263;49.492;11.056;2023-07-13T03:48:38;16.20;71.20
75666;DHT22;64263;49.492;11.056;2023-07-13T03:51:04;16.20;71.20
75666;DHT22;64263;49.492;11.056;2023-07-13T03:53:29;16.20;70.50
75666;DHT22;64263;49.492;11.056;2023-07-13T03:55:55;16.40;70.00
75666;DHT22;64263;49.492;11.056;2023-07-13T03:58:31;16.40;68.40
75666;DHT22;64263;49.492;11.056;2023-07-13T04:00:57;16.50;67.50
75666;DHT22;64263;49.492;11.056;2023-07-13T04:03:23;16.60;67.60
75666;DHT22;64263;49.492;11.056;2023-07-13T04:05:49;16.70;66.80
75666;DHT22;64263;49.492;11.056;2023-07-13T04:08:15;16.70;66.10
75666;DHT22;64263;49.492;11.056;2023-07-13T04:10:40;16.80;66.70
75666;DHT22;64263;49.492;11.056;2023-07-13T04:13:06;16.80;66.10
75666;DHT22;64263;49.492;11.056;2023-07-13T04:15:32;16.80;65.30
75666;DHT22;64263;49.492;11.056;2023-07-13T04:17:57;16.90;65.40
75666;DHT22;64263;49.492;11.056;2023-07-13T04:20:24;16.90;64.90
75666;DHT22;64263;49.492;11.056;2023-07-13T04:22:50;16.90;64.80
75666;DHT22;64263;49.492;11.056;2023-07-13T04:25:15;16.90;65.20
75666;DHT22;64263;49.492;11.056;2023-07-13T04:27:41;16.90;65.10
75666;DHT22;64263;49.492;11.056;2023-07-13T04:30:07;16.80;65.30
75666;DHT22;64263;49.492;11.056;2023-07-13T04:32:33;16.80;65.50
75666;DHT22;64263;49.492;11.056;2023-07-13T04:34:58;16.80;65.70
75666;DHT22;64263;49.492;11.056;2023-07-13T04:37:24;16.90;65.80
75666;DHT22;64263;49.492;11.056;2023-07-13T04:39:50;17.00;65.30
75666;DHT22;64263;49.492;11.056;2023-07-13T04:42:15;17.00;65.00
75666;DHT22;64263;49.492;11.056;2023-07-13T04:44:41;17.00;64.40
75666;DHT22;64263;49.492;11.056;2023-07-13T04:47:06;17.10;63.80
75666;DHT22;64263;49.492;11.056;2023-07-13T04:49:32;17.20;63.80
75666;DHT22;64263;49.492;11.056;2023-07-13T04:51:57;17.50;62.80
75666;DHT22;64263;49.492;11.056;2023-07-13T04:54:23;17.70;62.50
75666;DHT22;64263;49.492;11.056;2023-07-13T04:56:48;18.00;61.50
75666;DHT22;64263;49.492;11.056;2023-07-13T04:59:14;18.10;60.70
75666;DHT22;64263;49.492;11.056;2023-07-13T05:01:39;18.30;60.80
75666;DHT22;64263;49.492;11.056;2023-07-13T05:04:04;18.30;59.70
75666;DHT22;64263;49.492;11.056;2023-07-13T05:06:30;18.30;60.20
75666;DHT22;64263;49.492;11.056;2023-07-13T05:08:56;18.30;60.40
75666;DHT22;64263;49.492;11.056;2023-07-13T05:11:21;18.30;59.90
75666;DHT22;64263;49.492;11.056;2023-07-13T05:13:46;18.40;59.90
75666;DHT22;64263;49.492;11.056;2023-07-13T05:16:12;18.50;59.60
75666;DHT22;64263;49.492;11.056;2023-07-13T05:18:37;18.60;59.10
75666;DHT22;64263;49.492;11.056;2023-07-13T05:21:06;18.60;58.80
75666;DHT22;64263;49.492;11.056;2023-07-13T05:23:33;18.50;58.70
75666;DHT22;64263;49.492;11.056;2023-07-13T05:25:59;18.50;59.30
75666;DHT22;64263;49.492;11.056;2023-07-13T05:28:26;18.80;58.40
75666;DHT22;64263;49.492;11.056;2023-07-13T05:30:52;19.20;57.00
75666;DHT22;64263;49.492;11.056;2023-07-13T05:33:17;19.50;55.90
75666;DHT22;64263;49.492;11.056;2023-07-13T05:35:43;20.00;55.30
75666;DHT22;64263;49.492;11.056;2023-07-13T05:38:08;20.40;54.70
75666;DHT22;64263;49.492;11.056;2023-07-13T05:40:34;20.70;53.40
75666;DHT22;64263;49.492;11.056;2023-07-13T05:42:59;21.00;52.60
75666;DHT22;64263;49.492;11.056;2023-07-13T05:45:25;21.30;51.50
75666;DHT22;64263;49.492;11.056;2023-07-13T05:47:50;21.50;50.90
75666;DHT22;64263;49.492;11.056;2023-07-13T05:50:15;21.40;51.10
75666;DHT22;64263;49.492;11.056;2023-07-13T05:52:41;21.30;50.70
75666;DHT22;64263;49.492;11.056;2023-07-13T05:55:07;21.00;50.90
75666;DHT22;64263;49.492;11.056;2023-07-13T05:57:32;21.00;50.70
75666;DHT22;64263;49.492;11.056;2023-07-13T05:59:58;21.10;51.20
75666;DHT22;64263;49.492;11.056;2023-07-13T06:02:23;21.30;50.30
75666;DHT22;64263;49.492;11.056;2023-07-13T06:04:49;21.40;49.60
75666;DHT22;64263;49.492;11.056;2023-07-13T06:07:15;21.50;49.80
75666;DHT22;64263;49.492;11.056;2023-07-13T06:09:40;21.50;49.00
75666;DHT22;64263;49.492;11.056;2023-07-13T06:12:06;21.70;49.40
75666;DHT22;64263;49.492;11.056;2023-07-13T06:14:31;21.90;49.50
75666;DHT22;64263;49.492;11.056;2023-07-13T06:16:57;21.90;48.50
75666;DHT22;64263;49.492;11.056;2023-07-13T06:19:22;21.20;49.60
75666;DHT22;64263;49.492;11.056;2023-07-13T06:21:48;20.60;50.90
75666;DHT22;64263;49.492;11.056;2023-07-13T06:24:13;20.30;52.00
75666;DHT22;64263;49.492;11.056;2023-07-13T06:26:39;20.00;52.50
75666;DHT22;64263;49.492;11.056;2023-07-13T06:29:04;20.60;52.30
75666;DHT22;64263;49.492;11.056;2023-07-13T06:31:30;21.30;50.40
75666;DHT22;64263;49.492;11.056;2023-07-13T06:33:56;21.90;49.00
75666;DHT22;64263;49.492;11.056;2023-07-13T06:36:21;22.60;47.20
75666;DHT22;64263;49.492;11.056;2023-07-13T06:38:47;23.10;46.30
75666;DHT22;64263;49.492;11.056;2023-07-13T06:41:12;23.40;45.70
75666;DHT22;64263;49.492;11.056;2023-07-13T06:43:38;23.60;45.20
75666;DHT22;64263;49.492;11.056;2023-07-13T06:46:03;23.50;45.70
75666;DHT22;64263;49.492;11.056;2023-07-13T06:48:29;23.50;45.90
75666;DHT22;64263;49.492;11.056;2023-07-13T06:50:55;23.00;46.00
75666;DHT22;64263;49.492;11.056;2023-07-13T06:53:21;22.50;46.20
75666;DHT22;64263;49.492;11.056;2023-07-13T06:55:47;22.30;47.60
75666;DHT22;64263;49.492;11.056;2023-07-13T06:58:14;22.50;47.40
75666;DHT22;64263;49.492;11.056;2023-07-13T07:00:39;22.70;47.50
75666;DHT22;64263;49.492;11.056;2023-07-13T07:03:05;22.60;47.50
75666;DHT22;64263;49.492;11.056;2023-07-13T07:05:30;22.20;47.20
75666;DHT22;64263;49.492;11.056;2023-07-13T07:07:56;21.90;48.20
75666;DHT22;64263;49.492;11.056;2023-07-13T07:10:21;22.60;47.00
75666;DHT22;64263;49.492;11.056;2023-07-13T07:12:47;23.20;46.10
75666;DHT22;64263;49.492;11.056;2023-07-13T07:15:12;24.10;44.50
75666;DHT22;64263;49.492;11.056;2023-07-13T07:17:38;24.30;44.00
75666;DHT22;64263;49.492;11.056;2023-07-13T07:20:04;24.80;43.30
75666;DHT22;64263;49.492;11.056;2023-07-13T07:22:30;25.00;42.00
75666;DHT22;64263;49.492;11.056;2023-07-13T07:24:57;24.60;42.60
75666;DHT22;64263;49.492;11.056;2023-07-13T07:27:23;24.50;42.50
75666;DHT22;64263;49.492;11.056;2023-07-13T07:29:49;24.60;42.80
75666;DHT22;64263;49.492;11.056;2023-07-13T07:32:14;24.40;42.60
75666;DHT22;64263;49.492;11.056;2023-07-13T07:34:40;24.40;42.40
75666;DHT22;64263;49.492;11.056;2023-07-13T07:37:06;24.30;42.50
75666;DHT22;64263;49.492;11.056;2023-07-13T07:39:31;24.80;42.10
75666;DHT22;64263;49.492;11.056;2023-07-13T07:41:57;25.80;40.50
75666;DHT22;64263;49.492;11.056;2023-07-13T07:44:22;25.60;40.00
75666;DHT22;64263;49.492;11.056;2023-07-13T07:46:48;24.60;41.10
75666;DHT22;64263;49.492;11.056;2023-07-13T07:49:13;23.80;42.80
75666;DHT22;64263;49.492;11.056;2023-07-13T07:51:39;23.60;43.20
75666;DHT22;64263;49.492;11.056;2023-07-13T07:54:05;23.60;44.00
75666;DHT22;64263;49.492;11.056;2023-07-13T07:56:31;24.00;42.80
75666;DHT22;64263;49.492;11.056;2023-07-13T07:58:57;25.00;42.10
75666;DHT22;64263;49.492;11.056;2023-07-13T08:01:23;26.10;40.20
75666;DHT22;64263;49.492;11.056;2023-07-13T08:03:48;27.10;38.80
75666;DHT22;64263;49.492;11.056;2023-07-13T08:06:15;27.40;37.80
75666;DHT22;64263;49.492;11.056;2023-07-13T08:08:40;27.90;36.80
75666;DHT22;64263;49.492;11.056;2023-07-13T08:11:07;28.30;35.90
75666;DHT22;64263;49.492;11.056;2023-07-13T08:13:33;28.90;35.20
75666;DHT22;64263;49.492;11.056;2023-07-13T08:15:59;29.40;34.50
75666;DHT22;64263;49.492;11.056;2023-07-13T08:18:24;29.70;33.80
75666;DHT22;64263;49.492;11.056;2023-07-13T08:20:50;30.20;33.60
75666;DHT22;64263;49.492;11.056;2023-07-13T08:23:15;30.50;33.00
75666;DHT22;64263;49.492;11.056;2023-07-13T08:25:41;30.90;32.00
75666;DHT22;64263;49.492;11.056;2023-07-13T08:28:06;31.20;31.40
75666;DHT22;64263;49.492;11.056;2023-07-13T08:30:32;31.40;30.80
75666;DHT22;64263;49.492;11.056;2023-07-13T08:32:57;31.50;30.60
75666;DHT22;64263;49.492;11.056;2023-07-13T08:35:23;31.60;30.00
75666;DHT22;64263;49.492;11.056;2023-07-13T08:37:48;31.80;29.70
75666;DHT22;64263;49.492;11.056;2023-07-13T08:40:14;31.70;28.90
75666;DHT22;64263;49.492;11.056;2023-07-13T08:42:45;31.80;27.20
75666;DHT22;64263;49.492;11.056;2023-07-13T08:45:37;31.50;27.70
75666;DHT22;64263;49.492;11.056;2023-07-13T08:48:11;32.00;28.00
75666;DHT22;64263;49.492;11.056;2023-07-13T08:53:32;32.00;27.20
75666;DHT22;64263;49.492;11.056;2023-07-13T08:55:59;31.90;26.90
75666;DHT22;64263;49.492;11.056;2023-07-13T08:58:25;32.30;27.20
75666;DHT22;64263;49.492;11.056;2023-07-13T09:01:10;32.80;26.70
75666;DHT22;64263;49.492;11.056;2023-07-13T09:04:08;33.20;26.40
75666;DHT22;64263;49.492;11.056;2023-07-13T09:06:44;33.20;27.40
75666;DHT22;64263;49.492;11.056;2023-07-13T09:09:20;33.00;27.30
75666;DHT22;64263;49.492;11.056;2023-07-13T09:11:56;32.80;27.30
75666;DHT22;64263;49.492;11.056;2023-07-13T09:17:02;32.80;26.90
75666;DHT22;64263;49.492;11.056;2023-07-13T09:19:30;32.50;27.00
75666;DHT22;64263;49.492;11.056;2023-07-13T09:21:57;33.00;26.90
75666;DHT22;64263;49.492;11.056;2023-07-13T09:27:01;34.40;26.70
75666;DHT22;64263;49.492;11.056;2023-07-13T09:29:34;34.60;25.40
75666;DHT22;64263;49.492;11.056;2023-07-13T09:32:02;34.60;25.60
75666;DHT22;64263;49.492;11.056;2023-07-13T09:34:29;34.40;25.50
75666;DHT22;64263;49.492;11.056;2023-07-13T09:36:56;34.10;25.80
75666;DHT22;64263;49.492;11.056;2023-07-13T09:39:26;33.60;26.50
75666;DHT22;64263;49.492;11.056;2023-07-13T09:44:38;33.40;25.70
75666;DHT22;64263;49.492;11.056;2023-07-13T09:47:18;33.40;25.40
75666;DHT22;64263;49.492;11.056;2023-07-13T09:49:44;33.90;25.30
75666;DHT22;64263;49.492;11.056;2023-07-13T09:52:15;33.90;25.40
75666;DHT22;64263;49.492;11.056;2023-07-13T09:54:45;33.90;24.90
75666;DHT22;64263;49.492;11.056;2023-07-13T09:57:17;34.00;25.30
75666;DHT22;64263;49.492;11.056;2023-07-13T09:59:45;34.60;24.70
75666;DHT22;64263;49.492;11.056;2023-07-13T10:02:37;34.50;24.70
75666;DHT22;64263;49.492;11.056;2023-07-13T10:05:05;34.00;25.30
75666;DHT22;64263;49.492;11.056;2023-07-13T10:07:31;33.90;24.60
75666;DHT22;64263;49.492;11.056;2023-07-13T10:09:59;33.00;24.80
75666;DHT22;64263;49.492;11.056;2023-07-13T10:12:25;33.50;25.00
75666;DHT22;64263;49.492;11.056;2023-07-13T10:14:54;34.10;24.50
75666;DHT22;64263;49.492;11.056;2023-07-13T10:17:27;35.10;24.10
75666;DHT22;64263;49.492;11.056;2023-07-13T10:19:54;36.00;23.40
75666;DHT22;64263;49.492;11.056;2023-07-13T10:22:27;37.10;22.50
75666;DHT22;64263;49.492;11.056;2023-07-13T10:24:55;38.10;22.20
75666;DHT22;64263;49.492;11.056;2023-07-13T10:27:29;38.70;21.40
75666;DHT22;64263;49.492;11.056;2023-07-13T10:30:02;39.60;21.50
75666;DHT22;64263;49.492;11.056;2023-07-13T10:32:30;40.10;20.60
75666;DHT22;64263;49.492;11.056;2023-07-13T10:34:55;40.50;20.80
75666;DHT22;64263;49.492;11.056;2023-07-13T10:38:11;40.50;20.60
75666;DHT22;64263;49.492;11.056;2023-07-13T10:40:23;39.90;20.40
75666;DHT22;64263;49.492;11.056;2023-07-13T10:42:53;37.50;21.90
75666;DHT22;64263;49.492;11.056;2023-07-13T10:45:22;35.70;22.80
75666;DHT22;64263;49.492;11.056;2023-07-13T10:47:49;33.00;25.20
75666;DHT22;64263;49.492;11.056;2023-07-13T10:50:19;35.00;24.00
75666;DHT22;64263;49.492;11.056;2023-07-13T10:52:49;32.80;24.80
75666;DHT22;64263;49.492;11.056;2023-07-13T10:58:11;34.20;25.20
75666;DHT22;64263;49.492;11.056;2023-07-13T11:00:46;35.70;23.60
75666;DHT22;64263;49.492;11.056;2023-07-13T11:03:15;36.00;23.10
75666;DHT22;64263;49.492;11.056;2023-07-13T11:05:42;36.50;23.50
75666;DHT22;64263;49.492;11.056;2023-07-13T11:10:50;40.60;20.90
75666;DHT22;64263;49.492;11.056;2023-07-13T11:18:45;34.90;24.30
75666;DHT22;64263;49.492;11.056;2023-07-13T11:21:21;38.10;22.30
75666;DHT22;64263;49.492;11.056;2023-07-13T11:24:12;38.80;20.60
75666;DHT22;64263;49.492;11.056;2023-07-13T11:26:51;37.10;23.00
75666;DHT22;64263;49.492;11.056;2023-07-13T11:31:51;33.00;25.20
75666;DHT22;64263;49.492;11.056;2023-07-13T11:34:21;32.00;26.40
75666;DHT22;64263;49.492;11.056;2023-07-13T11:36:49;30.60;27.30
75666;DHT22;64263;49.492;11.056;2023-07-13T11:39:19;30.30;28.30
75666;DHT22;64263;49.492;11.056;2023-07-13T11:41:51;33.30;27.30
75666;DHT22;64263;49.492;11.056;2023-07-13T11:44:20;36.30;24.00
75666;DHT22;64263;49.492;11.056;2023-07-13T11:47:14;39.30;21.60
75666;DHT22;64263;49.492;11.056;2023-07-13T11:49:44;38.00;21.50
75666;DHT22;64263;49.492;11.056;2023-07-13T11:52:15;34.20;24.30
75666;DHT22;64263;49.492;11.056;2023-07-13T11:54:50;32.00;26.10
75666;DHT22;64263;49.492;11.056;2023-07-13T11:57:41;31.60;27.50
75666;DHT22;64263;49.492;11.056;2023-07-13T12:00:22;32.40;26.80
75666;DHT22;64263;49.492;11.056;2023-07-13T12:02:50;33.70;26.10
75666;DHT22;64263;49.492;11.056;2023-07-13T12:05:18;34.60;24.90
75666;DHT22;64263;49.492;11.056;2023-07-13T12:07:44;34.10;25.70
75666;DHT22;64263;49.492;11.056;2023-07-13T12:13:08;33.00;26.00
75666;DHT22;64263;49.492;11.056;2023-07-13T12:17:59;30.80;28.90
75666;DHT22;64263;49.492;11.056;2023-07-13T12:20:28;33.60;26.90
75666;DHT22;64263;49.492;11.056;2023-07-13T12:22:58;35.60;24.70
75666;DHT22;64263;49.492;11.056;2023-07-13T12:25:24;35.30;25.30
75666;DHT22;64263;49.492;11.056;2023-07-13T12:27:50;36.70;24.50
75666;DHT22;64263;49.492;11.056;2023-07-13T12:30:26;35.90;24.30
75666;DHT22;64263;49.492;11.056;2023-07-13T12:33:02;34.90;25.20
75666;DHT22;64263;49.492;11.056;2023-07-13T12:35:31;33.50;26.60
75666;DHT22;64263;49.492;11.056;2023-07-13T12:37:57;34.10;26.60
75666;DHT22;64263;49.492;11.056;2023-07-13T12:40:27;32.70;27.20
75666;DHT22;64263;49.492;11.056;2023-07-13T12:42:53;33.50;26.10
75666;DHT22;64263;49.492;11.056;2023-07-13T12:45:22;34.70;24.90
75666;DHT22;64263;49.492;11.056;2023-07-13T12:47:50;35.90;24.10
75666;DHT22;64263;49.492;11.056;2023-07-13T12:50:18;35.80;24.40
75666;DHT22;64263;49.492;11.056;2023-07-13T12:52:51;37.90;23.30
75666;DHT22;64263;49.492;11.056;2023-07-13T12:55:19;38.70;22.40
75666;DHT22;64263;49.492;11.056;2023-07-13T12:57:56;38.20;22.70
75666;DHT22;64263;49.492;11.056;2023-07-13T13:00:29;36.90;23.00
75666;DHT22;64263;49.492;11.056;2023-07-13T13:02:57;34.80;25.30
75666;DHT22;64263;49.492;11.056;2023-07-13T13:05:25;32.80;26.60
75666;DHT22;64263;49.492;11.056;2023-07-13T13:07:51;31.60;27.90
75666;DHT22;64263;49.492;11.056;2023-07-13T13:10:17;31.10;28.80
75666;DHT22;64263;49.492;11.056;2023-07-13T13:12:42;30.60;29.30
75666;DHT22;64263;49.492;11.056;2023-07-13T13:15:09;30.30;30.00
75666;DHT22;64263;49.492;11.056;2023-07-13T13:17:35;30.10;31.20
75666;DHT22;64263;49.492;11.056;2023-07-13T13:20:00;30.00;30.40
75666;DHT22;64263;49.492;11.056;2023-07-13T13:22:26;29.70;30.00
75666;DHT22;64263;49.492;11.056;2023-07-13T13:24:51;29.40;30.40
75666;DHT22;64263;49.492;11.056;2023-07-13T13:27:19;29.10;31.00
75666;DHT22;64263;49.492;11.056;2023-07-13T13:29:46;28.70;31.50
75666;DHT22;64263;49.492;11.056;2023-07-13T13:32:13;28.60;31.60
75666;DHT22;64263;49.492;11.056;2023-07-13T13:34:39;28.30;31.50
75666;DHT22;64263;49.492;11.056;2023-07-13T13:37:20;27.80;31.90
75666;DHT22;64263;49.492;11.056;2023-07-13T13:39:46;27.90;32.40
75666;DHT22;64263;49.492;11.056;2023-07-13T13:42:12;28.10;31.60
75666;DHT22;64263;49.492;11.056;2023-07-13T13:44:37;28.00;32.20
75666;DHT22;64263;49.492;11.056;2023-07-13T13:47:03;28.10;33.10
75666;DHT22;64263;49.492;11.056;2023-07-13T13:49:30;28.30;32.00
75666;DHT22;64263;49.492;11.056;2023-07-13T13:51:56;28.10;31.50
75666;DHT22;64263;49.492;11.056;2023-07-13T13:54:22;27.90;32.10
75666;DHT22;64263;49.492;11.056;2023-07-13T13:56:50;28.00;31.90
75666;DHT22;64263;49.492;11.056;2023-07-13T13:59:16;27.80;31.80
75666;DHT22;64263;49.492;11.056;2023-07-13T14:01:43;27.40;31.90
75666;DHT22;64263;49.492;11.056;2023-07-13T14:04:16;27.10;32.70
75666;DHT22;64263;49.492;11.056;2023-07-13T14:06:42;27.00;32.50
75666;DHT22;64263;49.492;11.056;2023-07-13T14:09:13;27.00;32.90
75666;DHT22;64263;49.492;11.056;2023-07-13T14:11:39;26.90;32.50
75666;DHT22;64263;49.492;11.056;2023-07-13T14:14:05;27.20;32.80
75666;DHT22;64263;49.492;11.056;2023-07-13T14:16:31;27.40;32.00
75666;DHT22;64263;49.492;11.056;2023-07-13T14:18:58;27.20;32.20
75666;DHT22;64263;49.492;11.056;2023-07-13T14:21:24;27.10;33.40
75666;DHT22;64263;49.492;11.056;2023-07-13T14:23:50;26.80;33.30
75666;DHT22;64263;49.492;11.056;2023-07-13T14:26:37;26.70;33.80
75666;DHT22;64263;49.492;11.056;2023-07-13T14:29:10;26.90;33.60
75666;DHT22;64263;49.492;11.056;2023-07-13T14:31:36;27.10;32.80
75666;DHT22;64263;49.492;11.056;2023-07-13T14:34:02;26.80;32.70
75666;DHT22;64263;49.492;11.056;2023-07-13T14:36:38;26.70;32.90
75666;DHT22;64263;49.492;11.056;2023-07-13T14:41:37;26.70;34.10
75666;DHT22;64263;49.492;11.056;2023-07-13T14:44:18;27.00;33.70
75666;DHT22;64263;49.492;11.056;2023-07-13T14:46:45;27.10;32.30
75666;DHT22;64263;49.492;11.056;2023-07-13T14:49:33;26.90;32.70
75666;DHT22;64263;49.492;11.056;2023-07-13T14:52:02;26.80;33.00
75666;DHT22;64263;49.492;11.056;2023-07-13T14:54:28;27.00;32.30
75666;DHT22;64263;49.492;11.056;2023-07-13T14:56:53;27.10;33.60
75666;DHT22;64263;49.492;11.056;2023-07-13T14:59:19;27.20;32.40
75666;DHT22;64263;49.492;11.056;2023-07-13T15:01:46;26.80;33.20
75666;DHT22;64263;49.492;11.056;2023-07-13T15:04:12;26.60;33.40
75666;DHT22;64263;49.492;11.056;2023-07-13T15:06:58;26.50;33.20
75666;DHT22;64263;49.492;11.056;2023-07-13T15:09:23;26.50;32.90
75666;DHT22;64263;49.492;11.056;2023-07-13T15:11:49;26.40;33.00
75666;DHT22;64263;49.492;11.056;2023-07-13T15:14:14;26.10;33.20
75666;DHT22;64263;49.492;11.056;2023-07-13T15:16:40;26.00;33.90
75666;DHT22;64263;49.492;11.056;2023-07-13T15:19:07;25.90;34.10
75666;DHT22;64263;49.492;11.056;2023-07-13T15:21:33;26.00;33.50
75666;DHT22;64263;49.492;11.056;2023-07-13T15:23:59;26.00;33.80
75666;DHT22;64263;49.492;11.056;2023-07-13T15:26:24;26.00;33.30
75666;DHT22;64263;49.492;11.056;2023-07-13T15:28:50;26.00;33.50
75666;DHT22;64263;49.492;11.056;2023-07-13T15:31:26;25.80;33.70
75666;DHT22;64263;49.492;11.056;2023-07-13T15:33:52;25.80;34.60
75666;DHT22;64263;49.492;11.056;2023-07-13T15:36:19;25.80;34.50
75666;DHT22;64263;49.492;11.056;2023-07-13T15:38:46;25.80;34.40
75666;DHT22;64263;49.492;11.056;2023-07-13T15:41:26;25.80;34.20
75666;DHT22;64263;49.492;11.056;2023-07-13T15:43:54;25.60;34.20
75666;DHT22;64263;49.492;11.056;2023-07-13T15:46:22;25.60;34.60
75666;DHT22;64263;49.492;11.056;2023-07-13T15:48:48;25.50;34.50
75666;DHT22;64263;49.492;11.056;2023-07-13T15:51:24;25.40;35.30
75666;DHT22;64263;49.492;11.056;2023-07-13T15:53:50;25.50;35.70